createdAt,value
2023-03-02T00:00:51.685Z,59.91
2023-03-02T00:01:51.694Z,59.68
2023-03-02T00:02:51.689Z,58.85
2023-03-02T00:03:51.700Z,47.07
2023-03-02T00:04:51.684Z,47.16
2023-03-02T00:05:51.656Z,54.66
2023-03-02T00:06:51.651Z,48.90
2023-03-02T00:07:51.637Z,49.01
2023-03-02T00:08:51.691Z,50.13
2023-03-02T00:09:51.664Z,43.80
2023-03-02T00:10:51.608Z,45.42
2023-03-02T00:11:51.657Z,42.54
2023-03-02T00:12:51.602Z,46.28
2023-03-02T00:13:51.585Z,49.47
2023-03-02T00:14:51.606Z,43.25
2023-03-02T00:15:51.644Z,42.89
2023-03-02T00:16:51.577Z,43.62
2023-03-02T00:17:51.560Z,43.17
2023-03-02T00:18:51.551Z,48.88
2023-03-02T00:19:51.567Z,45.47
2023-03-02T00:20:51.551Z,51.30
2023-03-02T00:21:51.531Z,52.27
2023-03-02T00:22:51.525Z,51.26
2023-03-02T00:23:51.516Z,51.61
2023-03-02T00:24:51.536Z,49.51
2023-03-02T00:25:51.505Z,47.98
2023-03-02T00:26:51.490Z,46.74
2023-03-02T00:27:51.485Z,44.27
2023-03-02T00:28:51.476Z,50.20
2023-03-02T00:29:51.489Z,54.51
2023-03-02T00:30:51.453Z,46.44
2023-03-02T00:31:51.598Z,48.82
2023-03-02T00:32:51.464Z,45.04
2023-03-02T00:33:51.442Z,51.47
2023-03-02T00:34:51.461Z,46.18
2023-03-02T00:35:51.439Z,42.86
2023-03-02T00:36:51.419Z,46.04
2023-03-02T00:37:51.455Z,48.06
2023-03-02T00:38:51.406Z,47.21
2023-03-02T00:39:51.434Z,49.78
2023-03-02T00:40:51.396Z,43.21
2023-03-02T00:41:51.414Z,44.49
2023-03-02T00:42:51.370Z,51.30
2023-03-02T00:43:51.393Z,48.49
2023-03-02T00:44:51.427Z,43.22
2023-03-02T00:45:51.347Z,46.21
2023-03-02T00:46:51.380Z,49.26
2023-03-02T00:47:51.335Z,45.04
2023-03-02T00:48:51.324Z,42.94
2023-03-02T00:49:51.346Z,45.00
2023-03-02T00:50:51.318Z,59.33
2023-03-02T00:51:51.325Z,53.66
2023-03-02T00:52:51.299Z,44.42
2023-03-02T00:53:51.295Z,44.27
2023-03-02T00:54:51.322Z,48.72
2023-03-02T00:55:51.276Z,49.69
2023-03-02T00:56:51.263Z,44.75
2023-03-02T00:57:51.249Z,43.14
2023-03-02T00:58:51.386Z,43.01
2023-03-02T00:59:51.276Z,43.20
2023-03-02T01:00:51.234Z,56.03
2023-03-02T01:01:51.230Z,46.00
2023-03-02T01:02:51.361Z,47.28
2023-03-02T01:03:51.210Z,48.34
2023-03-02T01:04:51.249Z,46.52
2023-03-02T01:05:51.211Z,52.37
2023-03-02T01:06:51.204Z,61.03
2023-03-02T01:07:51.217Z,51.30
2023-03-02T01:08:51.179Z,46.83
2023-03-02T01:09:51.197Z,51.95
2023-03-02T01:10:53.325Z,49.43
2023-03-02T01:11:51.173Z,54.99
2023-03-02T01:12:51.148Z,53.22
2023-03-02T01:13:51.174Z,45.07
2023-03-02T01:14:51.155Z,43.23
2023-03-02T01:15:51.175Z,45.31
2023-03-02T01:16:51.128Z,60.07
2023-03-02T01:17:51.110Z,48.65
2023-03-02T01:18:51.101Z,44.16
2023-03-02T01:19:51.193Z,49.07
2023-03-02T01:20:51.098Z,51.94
2023-03-02T01:21:51.088Z,46.65
2023-03-02T01:22:51.075Z,48.73
2023-03-02T01:23:54.924Z,45.13
2023-03-02T01:24:52.152Z,52.99
2023-03-02T01:25:51.156Z,54.06
2023-03-02T01:26:51.037Z,52.28
2023-03-02T01:27:52.049Z,57.33
2023-03-02T01:28:51.070Z,60.84
2023-03-02T01:29:51.044Z,45.75
2023-03-02T01:30:51.028Z,54.64
2023-03-02T01:31:51.167Z,60.03
2023-03-02T01:32:51.054Z,62.09
2023-03-02T01:33:50.997Z,59.49
2023-03-02T01:34:51.005Z,59.69
2023-03-02T01:35:51.032Z,60.46
2023-03-02T01:36:50.966Z,60.67
2023-03-02T01:37:50.966Z,60.84
2023-03-02T01:38:50.984Z,61.17
2023-03-02T01:39:50.991Z,61.34
2023-03-02T01:40:50.954Z,61.37
2023-03-02T01:41:50.927Z,61.48
2023-03-02T01:42:50.927Z,61.54
2023-03-02T01:43:50.916Z,61.55
2023-03-02T01:44:50.954Z,61.38
2023-03-02T01:45:50.947Z,62.10
2023-03-02T01:46:50.894Z,62.01
2023-03-02T01:47:50.895Z,61.85
2023-03-02T01:48:50.878Z,61.47
2023-03-02T01:49:51.896Z,61.86
2023-03-02T01:50:50.863Z,61.51
2023-03-02T01:51:50.872Z,61.56
2023-03-02T01:52:50.857Z,61.92
2023-03-02T01:53:50.846Z,61.98
2023-03-02T01:54:50.829Z,62.02
2023-03-02T01:55:50.882Z,62.01
2023-03-02T01:56:50.832Z,62.09
2023-03-02T01:57:50.817Z,61.94
2023-03-02T01:58:50.799Z,62.02
2023-03-02T01:59:50.793Z,61.97
2023-03-02T02:00:50.860Z,61.75
2023-03-02T02:01:50.772Z,61.72
2023-03-02T02:02:50.810Z,61.77
2023-03-02T02:03:50.847Z,61.65
2023-03-02T02:04:50.753Z,61.52
2023-03-02T02:05:50.796Z,61.40
2023-03-02T02:06:50.738Z,61.56
2023-03-02T02:07:50.727Z,62.01
2023-03-02T02:08:50.722Z,61.62
2023-03-02T02:09:50.718Z,61.54
2023-03-02T02:10:50.786Z,61.22
2023-03-02T02:11:50.697Z,61.93
2023-03-02T02:12:50.704Z,61.22
2023-03-02T02:13:50.689Z,59.96
2023-03-02T02:14:50.679Z,59.53
2023-03-02T02:15:50.691Z,45.73
2023-03-02T02:16:50.702Z,50.39
2023-03-02T02:17:50.653Z,55.06
2023-03-02T02:18:50.657Z,47.48
2023-03-02T02:19:50.640Z,41.65
2023-03-02T02:20:50.658Z,45.10
2023-03-02T02:21:50.625Z,52.49
2023-03-02T02:22:50.680Z,55.24
2023-03-02T02:23:50.612Z,53.13
2023-03-02T02:24:50.588Z,51.38
2023-03-02T02:25:51.622Z,48.58
2023-03-02T02:26:50.583Z,42.72
2023-03-02T02:27:50.599Z,44.64
2023-03-02T02:28:50.563Z,47.40
2023-03-02T02:29:50.589Z,45.14
2023-03-02T02:30:50.600Z,60.91
2023-03-02T02:31:50.722Z,63.76
2023-03-02T02:32:51.704Z,52.46
2023-03-02T02:33:50.548Z,48.46
2023-03-02T02:34:50.581Z,48.20
2023-03-02T02:35:50.590Z,49.43
2023-03-02T02:36:50.516Z,45.41
2023-03-02T02:37:50.510Z,47.62
2023-03-02T02:38:50.495Z,51.10
2023-03-02T02:39:50.489Z,46.60
2023-03-02T02:40:50.518Z,48.94
2023-03-02T02:41:50.492Z,42.79
2023-03-02T02:42:50.483Z,42.64
2023-03-02T02:43:50.469Z,44.80
2023-03-02T02:44:50.457Z,53.51
2023-03-02T02:45:50.526Z,53.16
2023-03-02T02:46:50.445Z,51.41
2023-03-02T02:47:50.434Z,48.90
2023-03-02T02:48:50.468Z,52.63
2023-03-02T02:49:50.438Z,42.98
2023-03-02T02:50:50.513Z,48.58
2023-03-02T02:51:50.414Z,53.44
2023-03-02T02:52:50.399Z,43.10
2023-03-02T02:53:50.449Z,54.08
2023-03-02T02:54:50.386Z,48.41
2023-03-02T02:55:50.420Z,44.90
2023-03-02T02:56:50.365Z,48.96
2023-03-02T02:57:50.407Z,42.64
2023-03-02T02:58:50.357Z,44.77
2023-03-02T02:59:50.342Z,45.47
2023-03-02T03:00:50.460Z,50.96
2023-03-02T03:01:50.369Z,48.86
2023-03-02T03:02:50.331Z,42.77
2023-03-02T03:03:50.314Z,43.32
2023-03-02T03:04:50.385Z,46.29
2023-03-02T03:05:50.299Z,56.21
2023-03-02T03:06:50.321Z,53.51
2023-03-02T03:07:50.302Z,53.61
2023-03-02T03:08:50.276Z,46.89
2023-03-02T03:09:50.339Z,48.26
2023-03-02T03:10:50.266Z,46.76
2023-03-02T03:11:50.304Z,44.73
2023-03-02T03:12:50.268Z,46.13
2023-03-02T03:13:50.246Z,51.43
2023-03-02T03:14:50.241Z,51.69
2023-03-02T03:15:50.226Z,58.15
2023-03-02T03:16:50.287Z,60.22
2023-03-02T03:17:50.213Z,60.53
2023-03-02T03:18:50.213Z,62.22
2023-03-02T03:19:50.211Z,61.77
2023-03-02T03:20:50.192Z,61.47
2023-03-02T03:21:50.206Z,61.53
2023-03-02T03:22:50.179Z,61.90
2023-03-02T03:23:50.170Z,61.46
2023-03-02T03:24:50.164Z,61.29
2023-03-02T03:25:50.164Z,61.72
2023-03-02T03:26:50.214Z,61.22
2023-03-02T03:27:50.189Z,60.98
2023-03-02T03:28:50.140Z,60.78
2023-03-02T03:29:50.119Z,60.99
2023-03-02T03:30:50.169Z,60.95
2023-03-02T03:31:50.211Z,61.16
2023-03-02T03:32:50.105Z,65.55
2023-03-02T03:33:50.093Z,61.07
2023-03-02T03:34:50.091Z,60.77
2023-03-02T03:35:50.084Z,63.08
2023-03-02T03:36:50.108Z,61.42
2023-03-02T03:37:50.062Z,61.14
2023-03-02T03:38:50.054Z,60.94
2023-03-02T03:39:50.059Z,61.05
2023-03-02T03:40:50.043Z,63.93
2023-03-02T03:41:50.076Z,62.48
2023-03-02T03:42:50.028Z,61.11
2023-03-02T03:43:50.027Z,60.80
2023-03-02T03:44:50.042Z,61.02
2023-03-02T03:45:50.036Z,60.97
2023-03-02T03:46:50.033Z,65.19
2023-03-02T03:47:49.990Z,60.62
2023-03-02T03:48:49.994Z,60.23
2023-03-02T03:49:49.987Z,60.87
2023-03-02T03:50:49.973Z,62.19
2023-03-02T03:51:49.989Z,60.10
2023-03-02T03:52:49.962Z,60.76
2023-03-02T03:53:50.761Z,63.91
2023-03-02T03:54:49.954Z,59.51
2023-03-02T03:55:49.943Z,59.46
2023-03-02T03:56:49.955Z,62.46
2023-03-02T03:57:49.925Z,59.82
2023-03-02T03:58:49.955Z,59.22
2023-03-02T03:59:49.900Z,61.35
2023-03-02T04:00:49.899Z,58.32
2023-03-02T04:01:49.970Z,53.92
2023-03-02T04:02:49.907Z,51.36
2023-03-02T04:03:49.881Z,54.96
2023-03-02T04:04:49.873Z,50.99
2023-03-02T04:05:49.874Z,57.82
2023-03-02T04:06:49.891Z,53.80
2023-03-02T04:07:49.868Z,54.78
2023-03-02T04:08:49.847Z,50.15
2023-03-02T04:09:49.848Z,58.68
2023-03-02T04:10:49.838Z,55.63
2023-03-02T04:11:49.847Z,55.20
2023-03-02T04:12:49.815Z,52.69
2023-03-02T04:13:49.816Z,60.63
2023-03-02T04:14:49.808Z,56.30
2023-03-02T04:15:49.838Z,54.21
2023-03-02T04:16:49.817Z,58.86
2023-03-02T04:17:49.783Z,57.72
2023-03-02T04:18:49.783Z,59.87
2023-03-02T04:19:49.771Z,56.27
2023-03-02T04:20:49.759Z,55.26
2023-03-02T04:21:49.796Z,57.47
2023-03-02T04:22:49.769Z,55.77
2023-03-02T04:23:49.748Z,55.06
2023-03-02T04:24:49.755Z,56.79
2023-03-02T04:25:49.732Z,56.66
2023-03-02T04:26:50.773Z,55.08
2023-03-02T04:27:49.720Z,56.68
2023-03-02T04:28:49.715Z,62.36
2023-03-02T04:29:49.697Z,56.31
2023-03-02T04:30:49.732Z,58.17
2023-03-02T04:31:49.728Z,57.49
2023-03-02T04:32:49.718Z,59.20
2023-03-02T04:33:49.684Z,57.64
2023-03-02T04:34:49.679Z,54.42
2023-03-02T04:35:49.701Z,63.97
2023-03-02T04:36:49.706Z,60.56
2023-03-02T04:37:49.655Z,61.92
2023-03-02T04:38:49.651Z,57.77
2023-03-02T04:39:49.634Z,63.54
2023-03-02T04:40:49.630Z,56.35
2023-03-02T04:41:49.653Z,58.51
2023-03-02T04:42:49.656Z,59.45
2023-03-02T04:43:49.604Z,58.09
2023-03-02T04:44:49.602Z,58.75
2023-03-02T04:45:49.591Z,54.47
2023-03-02T04:46:49.709Z,58.23
2023-03-02T04:47:49.587Z,56.87
2023-03-02T04:48:49.591Z,57.88
2023-03-02T04:49:50.573Z,62.15
2023-03-02T04:50:49.560Z,58.52
2023-03-02T04:51:50.588Z,58.01
2023-03-02T04:52:49.560Z,56.27
2023-03-02T04:53:49.544Z,50.43
2023-03-02T04:54:49.550Z,58.18
2023-03-02T04:55:49.544Z,56.59
2023-03-02T04:56:49.554Z,56.50
2023-03-02T04:57:49.588Z,58.03
2023-03-02T04:58:49.510Z,56.88
2023-03-02T04:59:49.504Z,58.47
2023-03-02T05:00:49.496Z,58.14
2023-03-02T05:01:50.280Z,55.90
2023-03-02T05:02:49.527Z,55.02
2023-03-02T05:03:49.493Z,58.19
2023-03-02T05:04:49.579Z,58.14
2023-03-02T05:05:49.463Z,62.91
2023-03-02T05:06:49.462Z,55.07
2023-03-02T05:07:49.475Z,58.65
2023-03-02T05:08:49.463Z,53.71
2023-03-02T05:09:49.464Z,57.74
2023-03-02T05:10:49.428Z,56.92
2023-03-02T05:11:49.417Z,61.73
2023-03-02T05:12:49.497Z,62.11
2023-03-02T05:13:49.405Z,61.52
2023-03-02T05:14:49.402Z,62.92
2023-03-02T05:15:49.441Z,63.39
2023-03-02T05:16:49.388Z,62.51
2023-03-02T05:17:49.409Z,66.72
2023-03-02T05:18:49.369Z,63.12
2023-03-02T05:19:49.368Z,62.49
2023-03-02T05:20:50.362Z,62.65
2023-03-02T05:21:49.350Z,61.60
2023-03-02T05:22:49.378Z,62.89
2023-03-02T05:23:49.334Z,64.00
2023-03-02T05:24:49.341Z,62.58
2023-03-02T05:25:49.375Z,62.48
2023-03-02T05:26:49.315Z,62.32
2023-03-02T05:27:49.333Z,61.37
2023-03-02T05:28:49.306Z,61.14
2023-03-02T05:29:49.303Z,65.28
2023-03-02T05:30:49.284Z,63.19
2023-03-02T05:31:49.346Z,62.07
2023-03-02T05:32:49.298Z,62.91
2023-03-02T05:33:49.267Z,64.21
2023-03-02T05:34:49.265Z,62.95
2023-03-02T05:35:49.315Z,61.72
2023-03-02T05:36:49.415Z,63.45
2023-03-02T05:37:49.260Z,63.62
2023-03-02T05:38:49.265Z,61.82
2023-03-02T05:39:49.233Z,63.67
2023-03-02T05:40:49.245Z,62.96
2023-03-02T05:41:49.202Z,62.61
2023-03-02T05:42:50.226Z,62.67
2023-03-02T05:43:49.229Z,66.22
2023-03-02T05:44:49.197Z,62.12
2023-03-02T05:45:49.186Z,63.38
2023-03-02T05:46:49.219Z,62.44
2023-03-02T05:47:49.192Z,62.48
2023-03-02T05:48:49.170Z,61.87
2023-03-02T05:49:49.163Z,62.41
2023-03-02T05:50:49.143Z,60.99
2023-03-02T05:51:49.147Z,59.09
2023-03-02T05:52:49.159Z,60.33
2023-03-02T05:53:49.120Z,58.70
2023-03-02T05:54:49.146Z,64.34
2023-03-02T05:55:49.099Z,59.76
2023-03-02T05:56:50.330Z,59.39
2023-03-02T05:57:50.117Z,61.54
2023-03-02T05:58:49.075Z,61.29
2023-03-02T05:59:49.076Z,63.97
2023-03-02T06:00:49.068Z,61.17
2023-03-02T06:01:49.128Z,60.66
2023-03-02T06:02:49.117Z,61.59
2023-03-02T06:03:49.050Z,63.18
2023-03-02T06:04:49.034Z,58.24
2023-03-02T06:05:49.036Z,58.60
2023-03-02T06:06:49.025Z,59.86
2023-03-02T06:07:49.117Z,60.82
2023-03-02T06:08:49.017Z,62.11
2023-03-02T06:09:49.013Z,61.00
2023-03-02T06:10:48.995Z,61.28
2023-03-02T06:11:48.981Z,62.61
2023-03-02T06:12:49.002Z,63.88
2023-03-02T06:13:48.967Z,59.58
2023-03-02T06:14:48.957Z,58.96
2023-03-02T06:15:48.967Z,59.64
2023-03-02T06:16:49.005Z,58.14
2023-03-02T06:17:48.970Z,58.89
2023-03-02T06:18:48.926Z,58.34
2023-03-02T06:19:49.924Z,57.60
2023-03-02T06:20:48.938Z,57.20
2023-03-02T06:21:49.918Z,58.90
2023-03-02T06:22:48.966Z,58.03
2023-03-02T06:23:48.900Z,60.35
2023-03-02T06:24:48.914Z,57.82
2023-03-02T06:25:48.919Z,61.16
2023-03-02T06:26:48.877Z,58.25
2023-03-02T06:27:48.895Z,57.26
2023-03-02T06:28:53.252Z,54.31
2023-03-02T06:29:49.936Z,57.82
2023-03-02T06:30:48.854Z,58.94
2023-03-02T06:31:48.885Z,61.09
2023-03-02T06:32:48.916Z,60.79
2023-03-02T06:33:48.852Z,63.60
2023-03-02T06:34:48.827Z,61.30
2023-03-02T06:35:48.982Z,62.17
2023-03-02T06:36:48.805Z,63.36
2023-03-02T06:37:48.825Z,61.46
2023-03-02T06:38:48.797Z,61.99
2023-03-02T06:39:48.789Z,62.28
2023-03-02T06:40:48.784Z,62.08
2023-03-02T06:41:48.779Z,62.21
2023-03-02T06:42:48.789Z,64.57
2023-03-02T06:43:48.764Z,64.64
2023-03-02T06:44:48.742Z,60.72
2023-03-02T06:45:48.775Z,61.18
2023-03-02T06:46:48.732Z,63.30
2023-03-02T06:47:48.752Z,60.85
2023-03-02T06:48:48.761Z,60.38
2023-03-02T06:49:48.709Z,63.62
2023-03-02T06:50:48.708Z,63.04
2023-03-02T06:51:48.697Z,63.07
2023-03-02T06:52:48.717Z,60.67
2023-03-02T06:53:48.691Z,57.82
2023-03-02T06:54:48.673Z,56.85
2023-03-02T06:55:48.667Z,59.04
2023-03-02T06:56:48.668Z,57.35
2023-03-02T06:57:48.683Z,55.83
2023-03-02T06:58:48.662Z,60.49
2023-03-02T06:59:49.905Z,56.73
2023-03-02T07:00:48.690Z,55.23
2023-03-02T07:01:48.632Z,55.20
2023-03-02T07:02:48.641Z,56.35
2023-03-02T07:03:48.674Z,58.05
2023-03-02T07:04:48.601Z,52.90
2023-03-02T07:05:48.618Z,59.23
2023-03-02T07:06:48.620Z,59.74
2023-03-02T07:07:48.611Z,55.35
2023-03-02T07:08:48.576Z,54.28
2023-03-02T07:09:48.572Z,58.08
2023-03-02T07:10:48.571Z,56.13
2023-03-02T07:11:48.567Z,57.66
2023-03-02T07:12:48.582Z,59.83
2023-03-02T07:13:48.539Z,55.91
2023-03-02T07:14:48.537Z,59.93
2023-03-02T07:15:48.526Z,56.53
2023-03-02T07:16:48.579Z,56.27
2023-03-02T07:17:48.542Z,61.08
2023-03-02T07:18:48.503Z,57.95
2023-03-02T07:19:48.521Z,58.36
2023-03-02T07:20:48.482Z,59.25
2023-03-02T07:21:48.491Z,56.85
2023-03-02T07:22:48.498Z,55.85
2023-03-02T07:23:48.462Z,58.28
2023-03-02T07:24:48.454Z,62.94
2023-03-02T07:25:48.536Z,59.71
2023-03-02T07:26:48.450Z,57.52
2023-03-02T07:27:48.455Z,59.05
2023-03-02T07:28:48.426Z,59.71
2023-03-02T07:29:48.409Z,60.25
2023-03-02T07:30:48.435Z,59.21
2023-03-02T07:31:48.401Z,58.54
2023-03-02T07:32:48.449Z,58.40
2023-03-02T07:33:48.415Z,58.82
2023-03-02T07:34:48.383Z,61.51
2023-03-02T07:35:48.403Z,60.11
2023-03-02T07:36:48.367Z,57.76
2023-03-02T07:37:48.356Z,59.56
2023-03-02T07:38:48.472Z,58.61
2023-03-02T07:39:48.335Z,58.18
2023-03-02T07:40:48.431Z,59.41
2023-03-02T07:41:48.330Z,60.63
2023-03-02T07:42:48.310Z,59.60
2023-03-02T07:43:48.330Z,57.88
2023-03-02T07:44:48.302Z,59.47
2023-03-02T07:45:48.298Z,62.04
2023-03-02T07:46:48.356Z,58.41
2023-03-02T07:47:48.266Z,57.82
2023-03-02T07:48:48.287Z,58.38
2023-03-02T07:49:48.259Z,60.98
2023-03-02T07:50:48.245Z,59.59
2023-03-02T07:51:48.255Z,59.79
2023-03-02T07:52:48.241Z,59.80
2023-03-02T07:53:48.277Z,58.01
2023-03-02T07:54:48.210Z,53.98
2023-03-02T07:55:49.208Z,59.44
2023-03-02T07:56:48.198Z,60.51
2023-03-02T07:57:48.194Z,57.42
2023-03-02T07:58:48.208Z,55.88
2023-03-02T07:59:48.180Z,56.68
2023-03-02T08:00:48.156Z,64.42
2023-03-02T08:01:49.201Z,63.44
2023-03-02T08:02:48.341Z,59.36
2023-03-02T08:03:48.809Z,57.84
2023-03-02T08:04:48.146Z,58.38
2023-03-02T08:05:48.203Z,58.49
2023-03-02T08:06:48.130Z,56.97
2023-03-02T08:07:48.132Z,59.67
2023-03-02T08:08:48.148Z,56.57
2023-03-02T08:09:48.131Z,59.35
2023-03-02T08:10:48.104Z,57.67
2023-03-02T08:11:48.086Z,57.89
2023-03-02T08:12:48.080Z,56.86
2023-03-02T08:13:48.104Z,58.95
2023-03-02T08:14:48.066Z,58.99
2023-03-02T08:15:48.132Z,59.69
2023-03-02T08:16:48.070Z,60.46
2023-03-02T08:17:48.046Z,59.42
2023-03-02T08:18:48.100Z,62.96
2023-03-02T08:19:48.039Z,56.82
2023-03-02T08:20:48.042Z,58.16
2023-03-02T08:21:48.025Z,59.28
2023-03-02T08:22:48.036Z,59.88
2023-03-02T08:23:48.056Z,61.63
2023-03-02T08:24:47.991Z,57.17
2023-03-02T08:25:47.984Z,59.17
2023-03-02T08:26:48.002Z,57.72
2023-03-02T08:27:48.006Z,54.74
2023-03-02T08:28:47.989Z,60.95
2023-03-02T08:29:47.987Z,59.00
2023-03-02T08:30:47.949Z,57.68
2023-03-02T08:31:48.009Z,58.90
2023-03-02T08:32:48.032Z,58.53
2023-03-02T08:33:47.977Z,59.46
2023-03-02T08:34:47.918Z,59.21
2023-03-02T08:35:47.980Z,57.15
2023-03-02T08:36:47.899Z,56.62
2023-03-02T08:37:47.973Z,59.92
2023-03-02T08:38:47.949Z,58.46
2023-03-02T08:39:47.890Z,58.65
2023-03-02T08:40:47.861Z,58.80
2023-03-02T08:41:47.864Z,64.01
2023-03-02T08:42:47.855Z,57.75
2023-03-02T08:43:47.870Z,58.23
2023-03-02T08:44:47.845Z,62.88
2023-03-02T08:45:47.866Z,62.13
2023-03-02T08:46:48.831Z,56.72
2023-03-02T08:47:47.806Z,57.20
2023-03-02T08:48:47.860Z,65.60
2023-03-02T08:49:48.317Z,62.90
2023-03-02T08:50:48.811Z,60.05
2023-03-02T08:51:47.795Z,58.90
2023-03-02T08:52:47.773Z,59.64
2023-03-02T08:53:47.788Z,57.34
2023-03-02T08:54:47.778Z,59.46
2023-03-02T08:55:47.763Z,59.28
2023-03-02T08:56:47.746Z,58.72
2023-03-02T08:57:47.767Z,60.66
2023-03-02T08:58:47.751Z,58.14
2023-03-02T08:59:47.723Z,59.32
2023-03-02T09:00:47.744Z,59.74
2023-03-02T09:01:47.731Z,58.38
2023-03-02T09:02:47.703Z,60.79
2023-03-02T09:03:47.717Z,63.72
2023-03-02T09:04:47.739Z,60.97
2023-03-02T09:05:47.674Z,64.74
2023-03-02T09:06:47.674Z,60.69
2023-03-02T09:07:47.665Z,57.46
2023-03-02T09:08:47.691Z,58.05
2023-03-02T09:09:47.696Z,58.94
2023-03-02T09:10:47.643Z,57.68
2023-03-02T09:11:47.615Z,62.02
2023-03-02T09:12:47.624Z,59.68
2023-03-02T09:13:47.642Z,58.79
2023-03-02T09:14:47.610Z,58.28
2023-03-02T09:15:47.644Z,58.19
2023-03-02T09:16:47.652Z,58.04
2023-03-02T09:17:47.579Z,62.99
2023-03-02T09:18:47.605Z,58.49
2023-03-02T09:19:47.595Z,60.50
2023-03-02T09:20:47.557Z,66.35
2023-03-02T09:21:47.554Z,60.16
2023-03-02T09:22:47.545Z,60.27
2023-03-02T09:23:47.695Z,58.77
2023-03-02T09:24:47.529Z,62.12
2023-03-02T09:25:47.536Z,57.00
2023-03-02T09:26:47.531Z,56.64
2023-03-02T09:27:47.516Z,60.59
2023-03-02T09:28:47.532Z,58.75
2023-03-02T09:29:47.493Z,59.16
2023-03-02T09:30:47.491Z,58.85
2023-03-02T09:31:47.542Z,60.84
2023-03-02T09:32:47.620Z,62.09
2023-03-02T09:33:47.493Z,59.04
2023-03-02T09:34:47.486Z,61.59
2023-03-02T09:35:47.460Z,58.29
2023-03-02T09:36:47.446Z,59.61
2023-03-02T09:37:47.485Z,63.24
2023-03-02T09:38:47.459Z,57.48
2023-03-02T09:39:48.477Z,58.18
2023-03-02T09:40:47.411Z,58.53
2023-03-02T09:41:47.427Z,61.76
2023-03-02T09:42:47.424Z,57.62
2023-03-02T09:43:47.575Z,58.75
2023-03-02T09:44:47.394Z,60.40
2023-03-02T09:45:47.414Z,59.42
2023-03-02T09:46:47.389Z,57.20
2023-03-02T09:47:47.436Z,58.42
2023-03-02T09:48:47.388Z,52.39
2023-03-02T09:49:47.349Z,60.28
2023-03-02T09:50:47.342Z,64.45
2023-03-02T09:51:47.340Z,60.25
2023-03-02T09:52:47.317Z,58.28
2023-03-02T09:53:47.371Z,57.18
2023-03-02T09:54:47.307Z,59.71
2023-03-02T09:55:47.355Z,58.49
2023-03-02T09:56:47.290Z,59.03
2023-03-02T09:57:47.299Z,61.78
2023-03-02T09:58:47.277Z,60.79
2023-03-02T09:59:47.313Z,61.29
2023-03-02T10:00:47.269Z,59.94
2023-03-02T10:01:47.279Z,59.99
2023-03-02T10:02:47.280Z,62.28
2023-03-02T10:03:47.334Z,59.38
2023-03-02T10:04:47.322Z,63.84
2023-03-02T10:05:47.241Z,54.21
2023-03-02T10:06:47.238Z,61.05
2023-03-02T10:07:47.207Z,59.78
2023-03-02T10:08:47.196Z,58.05
2023-03-02T10:09:47.229Z,58.72
2023-03-02T10:10:47.195Z,58.28
2023-03-02T10:11:47.178Z,59.37
2023-03-02T10:12:47.165Z,55.73
2023-03-02T10:13:47.727Z,58.85
2023-03-02T10:14:48.188Z,62.79
2023-03-02T10:15:47.178Z,57.39
2023-03-02T10:16:47.148Z,60.79
2023-03-02T10:17:47.179Z,58.53
2023-03-02T10:18:47.186Z,63.70
2023-03-02T10:19:47.144Z,57.21
2023-03-02T10:20:47.119Z,59.02
2023-03-02T10:21:47.128Z,61.51
2023-03-02T10:22:47.100Z,58.83
2023-03-02T10:23:47.094Z,57.66
2023-03-02T10:24:47.109Z,58.62
2023-03-02T10:25:47.075Z,60.46
2023-03-02T10:26:47.067Z,64.94
2023-03-02T10:27:47.091Z,61.82
2023-03-02T10:28:47.058Z,63.07
2023-03-02T10:29:47.076Z,55.01
2023-03-02T10:30:47.118Z,59.05
2023-03-02T10:31:47.032Z,59.69
2023-03-02T10:32:47.020Z,59.41
2023-03-02T10:33:47.012Z,58.14
2023-03-02T10:34:47.036Z,62.78
2023-03-02T10:35:47.023Z,60.55
2023-03-02T10:36:46.989Z,58.30
2023-03-02T10:37:47.036Z,62.12
2023-03-02T10:38:46.986Z,58.87
2023-03-02T10:39:47.001Z,57.24
2023-03-02T10:40:46.975Z,57.79
2023-03-02T10:41:46.969Z,58.32
2023-03-02T10:42:46.948Z,57.41
2023-03-02T10:43:46.969Z,58.21
2023-03-02T10:44:46.957Z,57.58
2023-03-02T10:45:47.979Z,59.86
2023-03-02T10:46:47.079Z,62.98
2023-03-02T10:47:46.926Z,59.40
2023-03-02T10:48:49.312Z,58.31
2023-03-02T10:49:47.933Z,60.72
2023-03-02T10:50:46.896Z,55.07
2023-03-02T10:51:46.888Z,58.01
2023-03-02T10:52:59.248Z,56.64
2023-03-02T10:53:48.869Z,56.52
2023-03-02T10:54:46.886Z,59.78
2023-03-02T10:55:46.861Z,56.44
2023-03-02T10:56:46.849Z,62.06
2023-03-02T10:57:46.838Z,58.02
2023-03-02T10:58:46.831Z,58.37
2023-03-02T10:59:46.870Z,59.21
2023-03-02T11:00:46.822Z,61.54
2023-03-02T11:01:46.838Z,60.85
2023-03-02T11:02:46.805Z,55.16
2023-03-02T11:03:46.802Z,57.39
2023-03-02T11:04:46.886Z,58.29
2023-03-02T11:05:46.809Z,60.52
2023-03-02T11:06:46.788Z,60.21
2023-03-02T11:07:46.769Z,59.08
2023-03-02T11:08:46.800Z,56.44
2023-03-02T11:09:46.775Z,56.51
2023-03-02T11:10:46.770Z,60.89
2023-03-02T11:11:46.757Z,57.04
2023-03-02T11:12:46.728Z,57.52
2023-03-02T11:13:46.716Z,58.14
2023-03-02T11:14:46.717Z,56.29
2023-03-02T11:15:46.762Z,57.75
2023-03-02T11:16:46.694Z,58.38
2023-03-02T11:17:46.684Z,59.39
2023-03-02T11:18:46.672Z,55.36
2023-03-02T11:19:46.665Z,59.05
2023-03-02T11:20:46.677Z,61.89
2023-03-02T11:21:47.682Z,59.17
2023-03-02T11:22:46.638Z,55.69
2023-03-02T11:23:47.457Z,58.60
2023-03-02T11:24:46.768Z,61.13
2023-03-02T11:25:46.645Z,53.65
2023-03-02T11:26:46.616Z,56.40
2023-03-02T11:27:46.616Z,56.05
2023-03-02T11:28:46.602Z,56.92
2023-03-02T11:29:46.594Z,55.08
2023-03-02T11:30:46.604Z,57.77
2023-03-02T11:31:46.713Z,53.83
2023-03-02T11:32:46.656Z,57.35
2023-03-02T11:33:46.621Z,56.62
2023-03-02T11:34:46.582Z,57.93
2023-03-02T11:35:46.648Z,57.99
2023-03-02T11:36:46.535Z,55.28
2023-03-02T11:37:46.535Z,54.71
2023-03-02T11:38:46.519Z,55.08
2023-03-02T11:39:54.666Z,58.16
2023-03-02T11:40:48.995Z,62.67
2023-03-02T11:41:46.498Z,62.02
2023-03-02T11:42:46.489Z,59.08
2023-03-02T11:43:46.485Z,58.26
2023-03-02T11:44:46.499Z,57.73
2023-03-02T11:45:46.461Z,56.73
2023-03-02T11:46:46.568Z,64.18
2023-03-02T11:47:51.504Z,58.68
2023-03-02T11:48:47.442Z,59.46
2023-03-02T11:49:46.469Z,58.93
2023-03-02T11:50:46.469Z,56.01
2023-03-02T11:51:56.674Z,62.54
2023-03-02T11:52:48.451Z,61.32
2023-03-02T11:53:46.484Z,60.56
2023-03-02T11:54:46.415Z,61.73
2023-03-02T11:55:46.395Z,61.18
2023-03-02T11:56:46.422Z,62.54
2023-03-02T11:57:46.393Z,61.89
2023-03-02T11:58:46.382Z,61.48
2023-03-02T11:59:46.372Z,59.97
2023-03-02T12:00:46.356Z,60.71
2023-03-02T12:01:46.418Z,59.53
2023-03-02T12:02:46.347Z,61.53
2023-03-02T12:03:46.370Z,64.79
2023-03-02T12:04:46.323Z,60.99
2023-03-02T12:05:46.377Z,58.94
2023-03-02T12:06:46.394Z,62.31
2023-03-02T12:07:46.302Z,62.44
2023-03-02T12:08:46.424Z,59.02
2023-03-02T12:09:46.289Z,58.96
2023-03-02T12:10:46.281Z,63.92
2023-03-02T12:11:46.316Z,59.51
2023-03-02T12:12:46.252Z,55.50
2023-03-02T12:13:46.272Z,62.27
2023-03-02T12:14:46.254Z,57.82
2023-03-02T12:15:46.240Z,61.22
2023-03-02T12:16:46.324Z,60.10
2023-03-02T12:17:46.244Z,59.58
2023-03-02T12:18:46.220Z,56.83
2023-03-02T12:19:46.211Z,58.89
2023-03-02T12:20:46.208Z,61.58
2023-03-02T12:21:46.222Z,56.68
2023-03-02T12:22:46.189Z,59.45
2023-03-02T12:23:46.179Z,57.38
2023-03-02T12:24:46.180Z,58.54
2023-03-02T12:25:46.216Z,59.26
2023-03-02T12:26:46.178Z,58.72
2023-03-02T12:27:46.191Z,58.22
2023-03-02T12:28:46.137Z,55.59
2023-03-02T12:29:46.134Z,57.93
2023-03-02T12:30:46.122Z,56.28
2023-03-02T12:31:46.176Z,56.08
2023-03-02T12:32:46.118Z,59.81
2023-03-02T12:33:46.104Z,58.75
2023-03-02T12:34:46.090Z,60.10
2023-03-02T12:35:46.088Z,57.77
2023-03-02T12:36:46.133Z,60.38
2023-03-02T12:37:46.080Z,57.56
2023-03-02T12:38:46.103Z,57.89
2023-03-02T12:39:46.051Z,56.24
2023-03-02T12:40:46.046Z,57.16
2023-03-02T12:41:46.147Z,58.33
2023-03-02T12:42:46.038Z,57.86
2023-03-02T12:43:46.032Z,59.37
2023-03-02T12:44:46.024Z,58.01
2023-03-02T12:45:46.193Z,59.09
2023-03-02T12:46:46.039Z,59.57
2023-03-02T12:47:46.403Z,58.29
2023-03-02T12:48:46.616Z,58.52
2023-03-02T12:49:45.988Z,60.65
2023-03-02T12:50:45.975Z,58.84
2023-03-02T12:51:46.082Z,56.68
2023-03-02T12:52:45.949Z,59.42